sensor_id;sensor_type;location;lat;lon;timestamp;pressure;altitude;pressure_sealevel;temperature;humidity
64238;BME280;57192;41.976;2.828;2022-07-11T00:01:39;100695.78;;;23.32;54.49
64238;BME280;57192;41.976;2.828;2022-07-11T00:04:04;100692.50;;;23.28;54.56
64238;BME280;57192;41.976;2.828;2022-07-11T00:06:30;100687.19;;;23.27;54.62
64238;BME280;57192;41.976;2.828;2022-07-11T00:08:55;100692.06;;;23.23;54.58
64238;BME280;57192;41.976;2.828;2022-07-11T00:11:20;100689.94;;;23.17;54.63
64238;BME280;57192;41.976;2.828;2022-07-11T00:13:46;100694.22;;;23.10;54.78
64238;BME280;57192;41.976;2.828;2022-07-11T00:16:11;100688.22;;;23.06;54.92
64238;BME280;57192;41.976;2.828;2022-07-11T00:18:38;100693.63;;;23.06;54.90
64238;BME280;57192;41.976;2.828;2022-07-11T00:21:04;100687.94;;;23.00;55.45
64238;BME280;57192;41.976;2.828;2022-07-11T00:23:29;100685.81;;;22.94;55.27
64238;BME280;57192;41.976;2.828;2022-07-11T00:25:55;100678.47;;;22.84;55.73
64238;BME280;57192;41.976;2.828;2022-07-11T00:28:20;100681.47;;;22.81;55.86
64238;BME280;57192;41.976;2.828;2022-07-11T00:30:46;100684.03;;;22.83;55.81
64238;BME280;57192;41.976;2.828;2022-07-11T00:33:11;100682.19;;;22.83;55.94
64238;BME280;57192;41.976;2.828;2022-07-11T00:35:37;100676.34;;;22.78;56.05
64238;BME280;57192;41.976;2.828;2022-07-11T00:38:02;100685.16;;;22.80;55.89
64238;BME280;57192;41.976;2.828;2022-07-11T00:40:28;100679.63;;;22.82;55.86
64238;BME280;57192;41.976;2.828;2022-07-11T00:42:53;100675.34;;;22.79;55.85
64238;BME280;57192;41.976;2.828;2022-07-11T00:45:19;100674.19;;;22.72;56.17
64238;BME280;57192;41.976;2.828;2022-07-11T00:47:44;100672.03;;;22.66;56.38
64238;BME280;57192;41.976;2.828;2022-07-11T00:50:10;100671.59;;;22.61;56.52
64238;BME280;57192;41.976;2.828;2022-07-11T00:52:36;100672.88;;;22.57;56.52
64238;BME280;57192;41.976;2.828;2022-07-11T00:55:02;100668.47;;;22.56;56.57
64238;BME280;57192;41.976;2.828;2022-07-11T00:57:30;100673.72;;;22.57;56.55
64238;BME280;57192;41.976;2.828;2022-07-11T00:59:56;100670.88;;;22.49;56.81
64238;BME280;57192;41.976;2.828;2022-07-11T01:02:21;100663.59;;;22.40;57.03
64238;BME280;57192;41.976;2.828;2022-07-11T01:04:47;100664.72;;;22.37;57.82
64238;BME280;57192;41.976;2.828;2022-07-11T01:07:12;100660.69;;;22.32;57.40
64238;BME280;57192;41.976;2.828;2022-07-11T01:09:38;100662.56;;;22.31;57.53
64238;BME280;57192;41.976;2.828;2022-07-11T01:12:05;100655.84;;;22.26;58.23
64238;BME280;57192;41.976;2.828;2022-07-11T01:14:31;100656.44;;;22.29;57.91
64238;BME280;57192;41.976;2.828;2022-07-11T01:16:56;100660.13;;;22.28;58.12
64238;BME280;57192;41.976;2.828;2022-07-11T01:19:21;100657.56;;;22.27;57.98
64238;BME280;57192;41.976;2.828;2022-07-11T01:21:49;100663.56;;;22.30;57.75
64238;BME280;57192;41.976;2.828;2022-07-11T01:24:15;100653.72;;;22.29;57.83
64238;BME280;57192;41.976;2.828;2022-07-11T01:26:42;100647.00;;;22.24;58.09
64238;BME280;57192;41.976;2.828;2022-07-11T01:29:13;100654.53;;;22.20;58.04
64238;BME280;57192;41.976;2.828;2022-07-11T01:31:42;100654.53;;;22.20;58.12
64238;BME280;57192;41.976;2.828;2022-07-11T01:34:09;100657.53;;;22.17;58.13
64238;BME280;57192;41.976;2.828;2022-07-11T01:36:35;100661.69;;;22.21;58.12
64238;BME280;57192;41.976;2.828;2022-07-11T01:39:01;100657.13;;;22.22;57.74
64238;BME280;57192;41.976;2.828;2022-07-11T01:41:26;100665.50;;;22.19;57.80
64238;BME280;57192;41.976;2.828;2022-07-11T01:43:52;100661.03;;;22.08;58.24
64238;BME280;57192;41.976;2.828;2022-07-11T01:46:18;100663.47;;;22.11;58.06
64238;BME280;57192;41.976;2.828;2022-07-11T01:48:44;100660.59;;;22.12;57.88
64238;BME280;57192;41.976;2.828;2022-07-11T01:51:10;100662.56;;;22.01;58.25
64238;BME280;57192;41.976;2.828;2022-07-11T01:53:36;100661.72;;;22.00;58.69
64238;BME280;57192;41.976;2.828;2022-07-11T01:56:01;100661.84;;;21.99;58.48
64238;BME280;57192;41.976;2.828;2022-07-11T01:58:27;100659.84;;;22.01;58.43
64238;BME280;57192;41.976;2.828;2022-07-11T02:00:56;100661.84;;;21.99;58.27
64238;BME280;57192;41.976;2.828;2022-07-11T02:03:21;100665.09;;;21.93;58.60
64238;BME280;57192;41.976;2.828;2022-07-11T02:05:47;100661.69;;;21.90;58.58
64238;BME280;57192;41.976;2.828;2022-07-11T02:08:12;100667.09;;;21.90;58.49
64238;BME280;57192;41.976;2.828;2022-07-11T02:10:39;100656.38;;;21.89;59.08
64238;BME280;57192;41.976;2.828;2022-07-11T02:13:05;100654.09;;;21.84;58.83
64238;BME280;57192;41.976;2.828;2022-07-11T02:15:31;100656.66;;;21.86;58.65
64238;BME280;57192;41.976;2.828;2022-07-11T02:17:57;100662.47;;;21.81;58.90
64238;BME280;57192;41.976;2.828;2022-07-11T02:20:24;100657.03;;;21.72;59.54
64238;BME280;57192;41.976;2.828;2022-07-11T02:22:50;100660.63;;;21.82;59.18
64238;BME280;57192;41.976;2.828;2022-07-11T02:25:17;100661.03;;;21.77;59.28
64238;BME280;57192;41.976;2.828;2022-07-11T02:27:43;100648.63;;;21.75;59.17
64238;BME280;57192;41.976;2.828;2022-07-11T02:30:09;100653.06;;;21.76;59.22
64238;BME280;57192;41.976;2.828;2022-07-11T02:32:35;100657.41;;;21.67;59.19
64238;BME280;57192;41.976;2.828;2022-07-11T02:35:01;100654.13;;;21.63;59.13
64238;BME280;57192;41.976;2.828;2022-07-11T02:37:27;100664.16;;;21.73;59.11
64238;BME280;57192;41.976;2.828;2022-07-11T02:39:52;100662.56;;;21.70;59.32
64238;BME280;57192;41.976;2.828;2022-07-11T02:42:18;100653.00;;;21.66;59.48
64238;BME280;57192;41.976;2.828;2022-07-11T02:44:44;100663.13;;;21.64;59.44
64238;BME280;57192;41.976;2.828;2022-07-11T02:47:10;100661.09;;;21.56;59.36
64238;BME280;57192;41.976;2.828;2022-07-11T02:49:35;100664.75;;;21.55;59.31
64238;BME280;57192;41.976;2.828;2022-07-11T02:52:00;100662.91;;;21.56;59.59
64238;BME280;57192;41.976;2.828;2022-07-11T02:54:26;100658.63;;;21.53;59.77
64238;BME280;57192;41.976;2.828;2022-07-11T02:56:51;100666.16;;;21.50;59.99
64238;BME280;57192;41.976;2.828;2022-07-11T02:59:17;100665.72;;;21.45;59.86
64238;BME280;57192;41.976;2.828;2022-07-11T03:01:42;100662.00;;;21.46;59.58
64238;BME280;57192;41.976;2.828;2022-07-11T03:04:09;100657.19;;;21.49;59.70
64238;BME280;57192;41.976;2.828;2022-07-11T03:06:35;100657.59;;;21.45;59.85
64238;BME280;57192;41.976;2.828;2022-07-11T03:09:00;100650.59;;;21.42;59.73
64238;BME280;57192;41.976;2.828;2022-07-11T03:11:26;100663.25;;;21.41;59.94
64238;BME280;57192;41.976;2.828;2022-07-11T03:13:51;100656.25;;;21.39;59.70
64238;BME280;57192;41.976;2.828;2022-07-11T03:16:16;100658.25;;;21.37;59.75
64238;BME280;57192;41.976;2.828;2022-07-11T03:18:42;100661.06;;;21.35;59.82
64238;BME280;57192;41.976;2.828;2022-07-11T03:21:07;100667.59;;;21.33;59.93
64238;BME280;57192;41.976;2.828;2022-07-11T03:23:33;100668.22;;;21.25;60.12
64238;BME280;57192;41.976;2.828;2022-07-11T03:26:00;100673.19;;;21.20;60.28
64238;BME280;57192;41.976;2.828;2022-07-11T03:28:25;100678.63;;;21.09;60.65
64238;BME280;57192;41.976;2.828;2022-07-11T03:30:51;100678.88;;;21.06;60.44
64238;BME280;57192;41.976;2.828;2022-07-11T03:33:16;100680.41;;;20.99;60.60
64238;BME280;57192;41.976;2.828;2022-07-11T03:35:42;100682.13;;;21.00;60.66
64238;BME280;57192;41.976;2.828;2022-07-11T03:38:08;100684.09;;;20.98;60.75
64238;BME280;57192;41.976;2.828;2022-07-11T03:40:34;100685.34;;;20.93;60.56
64238;BME280;57192;41.976;2.828;2022-07-11T03:42:59;100677.38;;;20.92;60.78
64238;BME280;57192;41.976;2.828;2022-07-11T03:45:25;100682.38;;;20.97;60.77
64238;BME280;57192;41.976;2.828;2022-07-11T03:47:51;100687.78;;;20.97;60.90
64238;BME280;57192;41.976;2.828;2022-07-11T03:50:17;100684.22;;;20.96;60.64
64238;BME280;57192;41.976;2.828;2022-07-11T03:52:42;100686.78;;;20.98;60.82
64238;BME280;57192;41.976;2.828;2022-07-11T03:55:09;100687.56;;;20.88;61.44
64238;BME280;57192;41.976;2.828;2022-07-11T03:57:34;100694.22;;;20.84;61.36
64238;BME280;57192;41.976;2.828;2022-07-11T04:00:01;100688.81;;;20.84;61.43
64238;BME280;57192;41.976;2.828;2022-07-11T04:02:29;100693.63;;;20.81;61.72
64238;BME280;57192;41.976;2.828;2022-07-11T04:04:55;100692.28;;;20.75;62.08
64238;BME280;57192;41.976;2.828;2022-07-11T04:07:20;100695.25;;;20.72;62.14
64238;BME280;57192;41.976;2.828;2022-07-11T04:09:46;100692.41;;;20.74;62.03
64238;BME280;57192;41.976;2.828;2022-07-11T04:12:11;100691.81;;;20.70;62.28
64238;BME280;57192;41.976;2.828;2022-07-11T04:14:37;100690.66;;;20.84;61.43
64238;BME280;57192;41.976;2.828;2022-07-11T04:17:03;100693.50;;;20.71;61.15
64238;BME280;57192;41.976;2.828;2022-07-11T04:19:28;100702.25;;;20.63;61.23
64238;BME280;57192;41.976;2.828;2022-07-11T04:21:54;100701.41;;;20.63;61.33
64238;BME280;57192;41.976;2.828;2022-07-11T04:24:19;100703.72;;;20.56;61.38
64238;BME280;57192;41.976;2.828;2022-07-11T04:26:45;100709.28;;;20.55;61.44
64238;BME280;57192;41.976;2.828;2022-07-11T04:29:10;100705.59;;;20.56;61.74
64238;BME280;57192;41.976;2.828;2022-07-11T04:31:36;100706.81;;;20.52;61.82
64238;BME280;57192;41.976;2.828;2022-07-11T04:34:01;100711.50;;;20.50;62.46
64238;BME280;57192;41.976;2.828;2022-07-11T04:36:26;100722.31;;;20.50;62.41
64238;BME280;57192;41.976;2.828;2022-07-11T04:38:52;100717.84;;;20.49;62.87
64238;BME280;57192;41.976;2.828;2022-07-11T04:41:17;100720.47;;;20.50;62.64
64238;BME280;57192;41.976;2.828;2022-07-11T04:43:43;100723.78;;;20.54;62.58
64238;BME280;57192;41.976;2.828;2022-07-11T04:46:09;100723.63;;;20.55;62.41
64238;BME280;57192;41.976;2.828;2022-07-11T04:48:35;100731.00;;;20.64;62.13
64238;BME280;57192;41.976;2.828;2022-07-11T04:51:06;100730.38;;;20.72;62.16
64238;BME280;57192;41.976;2.828;2022-07-11T04:53:33;100729.38;;;20.73;61.83
64238;BME280;57192;41.976;2.828;2022-07-11T04:55:58;100736.84;;;20.81;61.57
64238;BME280;57192;41.976;2.828;2022-07-11T04:58:24;100743.47;;;20.88;61.59
64238;BME280;57192;41.976;2.828;2022-07-11T05:00:50;100743.06;;;20.92;61.23
64238;BME280;57192;41.976;2.828;2022-07-11T05:03:17;100749.19;;;20.94;61.15
64238;BME280;57192;41.976;2.828;2022-07-11T05:05:42;100743.28;;;21.01;60.81
64238;BME280;57192;41.976;2.828;2022-07-11T05:08:07;100747.19;;;21.08;60.71
64238;BME280;57192;41.976;2.828;2022-07-11T05:10:33;100748.19;;;21.07;60.61
64238;BME280;57192;41.976;2.828;2022-07-11T05:13:04;100758.47;;;21.13;60.39
64238;BME280;57192;41.976;2.828;2022-07-11T05:15:30;100755.97;;;21.21;60.11
64238;BME280;57192;41.976;2.828;2022-07-11T05:17:56;100753.28;;;21.21;60.01
64238;BME280;57192;41.976;2.828;2022-07-11T05:20:21;100757.72;;;21.33;59.40
64238;BME280;57192;41.976;2.828;2022-07-11T05:22:47;100759.72;;;21.52;58.89
64238;BME280;57192;41.976;2.828;2022-07-11T05:25:12;100757.47;;;21.57;59.13
64238;BME280;57192;41.976;2.828;2022-07-11T05:27:38;100767.03;;;21.61;58.76
64238;BME280;57192;41.976;2.828;2022-07-11T05:30:04;100760.00;;;21.59;58.99
64238;BME280;57192;41.976;2.828;2022-07-11T05:32:29;100758.06;;;21.61;58.40
64238;BME280;57192;41.976;2.828;2022-07-11T05:34:55;100760.88;;;21.59;58.52
64238;BME280;57192;41.976;2.828;2022-07-11T05:37:24;100762.81;;;21.69;58.20
64238;BME280;57192;41.976;2.828;2022-07-11T05:39:49;100767.56;;;21.76;57.76
64238;BME280;57192;41.976;2.828;2022-07-11T05:42:16;100761.59;;;21.82;57.31
64238;BME280;57192;41.976;2.828;2022-07-11T05:44:42;100765.63;;;21.88;57.33
64238;BME280;57192;41.976;2.828;2022-07-11T05:47:07;100765.41;;;22.01;56.99
64238;BME280;57192;41.976;2.828;2022-07-11T05:49:33;100774.66;;;22.19;56.32
64238;BME280;57192;41.976;2.828;2022-07-11T05:51:58;100772.16;;;22.68;55.33
64238;BME280;57192;41.976;2.828;2022-07-11T05:54:24;100779.78;;;24.00;52.64
64238;BME280;57192;41.976;2.828;2022-07-11T05:56:50;100766.13;;;26.78;46.15
64238;BME280;57192;41.976;2.828;2022-07-11T05:59:15;100760.63;;;29.74;39.29
64238;BME280;57192;41.976;2.828;2022-07-11T06:01:41;100769.56;;;32.64;33.16
64238;BME280;57192;41.976;2.828;2022-07-11T06:04:06;100763.78;;;35.43;28.56
64238;BME280;57192;41.976;2.828;2022-07-11T06:06:32;100765.03;;;37.68;25.04
64238;BME280;57192;41.976;2.828;2022-07-11T06:08:57;100778.94;;;39.31;22.65
64238;BME280;57192;41.976;2.828;2022-07-11T06:11:23;100781.25;;;41.01;20.18
64238;BME280;57192;41.976;2.828;2022-07-11T06:13:49;100772.22;;;42.65;18.05
64238;BME280;57192;41.976;2.828;2022-07-11T06:16:15;100780.31;;;44.16;16.87
64238;BME280;57192;41.976;2.828;2022-07-11T06:18:41;100783.31;;;45.15;15.27
64238;BME280;57192;41.976;2.828;2022-07-11T06:21:07;100781.09;;;45.80;14.42
64238;BME280;57192;41.976;2.828;2022-07-11T06:23:33;100776.31;;;46.63;13.27
64238;BME280;57192;41.976;2.828;2022-07-11T06:26:02;100773.25;;;47.21;13.49
64238;BME280;57192;41.976;2.828;2022-07-11T06:28:28;100789.00;;;47.74;12.66
64238;BME280;57192;41.976;2.828;2022-07-11T06:30:53;100782.38;;;48.44;11.97
64238;BME280;57192;41.976;2.828;2022-07-11T06:33:19;100779.75;;;49.11;11.23
64238;BME280;57192;41.976;2.828;2022-07-11T06:35:46;100776.00;;;49.83;10.97
64238;BME280;57192;41.976;2.828;2022-07-11T06:38:12;100769.69;;;50.17;10.31
64238;BME280;57192;41.976;2.828;2022-07-11T06:40:38;100772.91;;;50.64;10.23
64238;BME280;57192;41.976;2.828;2022-07-11T06:43:04;100773.78;;;51.43;9.59
64238;BME280;57192;41.976;2.828;2022-07-11T06:45:32;100766.59;;;51.54;9.04
64238;BME280;57192;41.976;2.828;2022-07-11T06:47:57;100769.22;;;51.94;9.68
64238;BME280;57192;41.976;2.828;2022-07-11T06:50:23;100770.88;;;52.93;8.58
64238;BME280;57192;41.976;2.828;2022-07-11T06:52:48;100772.28;;;53.20;8.08
64238;BME280;57192;41.976;2.828;2022-07-11T06:55:14;100772.38;;;53.98;7.69
64238;BME280;57192;41.976;2.828;2022-07-11T06:57:39;100773.97;;;53.87;7.82
64238;BME280;57192;41.976;2.828;2022-07-11T07:00:06;100767.59;;;53.78;7.78
64238;BME280;57192;41.976;2.828;2022-07-11T07:02:32;100769.47;;;53.86;7.74
64238;BME280;57192;41.976;2.828;2022-07-11T07:04:58;100768.13;;;54.04;7.28
64238;BME280;57192;41.976;2.828;2022-07-11T07:07:24;100768.53;;;53.82;6.86
64238;BME280;57192;41.976;2.828;2022-07-11T07:09:50;100767.53;;;55.13;6.43
64238;BME280;57192;41.976;2.828;2022-07-11T07:12:15;100772.84;;;54.74;6.67
64238;BME280;57192;41.976;2.828;2022-07-11T07:14:41;100760.50;;;55.51;5.82
64238;BME280;57192;41.976;2.828;2022-07-11T07:17:06;100766.03;;;56.54;6.04
64238;BME280;57192;41.976;2.828;2022-07-11T07:19:32;100774.75;;;56.77;5.75
64238;BME280;57192;41.976;2.828;2022-07-11T07:21:58;100773.09;;;57.34;5.19
64238;BME280;57192;41.976;2.828;2022-07-11T07:24:23;100775.28;;;57.83;4.98
64238;BME280;57192;41.976;2.828;2022-07-11T07:26:49;100775.84;;;58.16;4.76
64238;BME280;57192;41.976;2.828;2022-07-11T07:29:14;100766.66;;;58.83;4.06
64238;BME280;57192;41.976;2.828;2022-07-11T07:31:40;100775.81;;;59.25;4.01
64238;BME280;57192;41.976;2.828;2022-07-11T07:34:05;100769.84;;;59.04;4.33
64238;BME280;57192;41.976;2.828;2022-07-11T07:36:31;100772.00;;;59.48;4.23
64238;BME280;57192;41.976;2.828;2022-07-11T07:38:56;100775.31;;;59.54;3.51
64238;BME280;57192;41.976;2.828;2022-07-11T07:41:22;100778.72;;;59.63;3.55
64238;BME280;57192;41.976;2.828;2022-07-11T07:43:47;100777.06;;;59.62;3.95
64238;BME280;57192;41.976;2.828;2022-07-11T07:46:14;100772.50;;;59.57;3.39
64238;BME280;57192;41.976;2.828;2022-07-11T07:48:40;100780.91;;;59.39;3.96
64238;BME280;57192;41.976;2.828;2022-07-11T07:51:06;100764.38;;;59.25;4.00
64238;BME280;57192;41.976;2.828;2022-07-11T07:53:32;100760.63;;;59.55;3.68
64238;BME280;57192;41.976;2.828;2022-07-11T07:55:57;100760.66;;;59.59;3.66
64238;BME280;57192;41.976;2.828;2022-07-11T07:58:23;100760.72;;;59.28;3.41
64238;BME280;57192;41.976;2.828;2022-07-11T08:00:48;100763.09;;;59.23;3.20
64238;BME280;57192;41.976;2.828;2022-07-11T08:03:32;100768.69;;;59.46;3.35
64238;BME280;57192;41.976;2.828;2022-07-11T08:05:58;100748.25;;;58.84;2.76
64238;BME280;57192;41.976;2.828;2022-07-11T08:08:23;100758.88;;;57.57;3.15
64238;BME280;57192;41.976;2.828;2022-07-11T08:10:49;100753.81;;;57.08;3.16
64238;BME280;57192;41.976;2.828;2022-07-11T08:13:18;100747.34;;;57.11;3.31
64238;BME280;57192;41.976;2.828;2022-07-11T08:15:45;100747.84;;;56.43;4.05
64238;BME280;57192;41.976;2.828;2022-07-11T08:18:11;100737.91;;;57.50;3.58
64238;BME280;57192;41.976;2.828;2022-07-11T08:20:37;100740.34;;;57.09;3.65
64238;BME280;57192;41.976;2.828;2022-07-11T08:23:03;100735.22;;;56.99;4.20
64238;BME280;57192;41.976;2.828;2022-07-11T08:25:31;100731.91;;;56.97;4.00
64238;BME280;57192;41.976;2.828;2022-07-11T08:27:56;100726.81;;;55.84;4.23
64238;BME280;57192;41.976;2.828;2022-07-11T08:30:22;100734.34;;;56.75;3.52
64238;BME280;57192;41.976;2.828;2022-07-11T08:32:47;100729.53;;;56.99;4.12
64238;BME280;57192;41.976;2.828;2022-07-11T08:35:13;100723.69;;;55.89;4.49
64238;BME280;57192;41.976;2.828;2022-07-11T08:37:42;100723.16;;;56.51;4.47
64238;BME280;57192;41.976;2.828;2022-07-11T08:40:08;100717.22;;;56.24;4.41
64238;BME280;57192;41.976;2.828;2022-07-11T08:42:40;100714.94;;;55.82;4.55
64238;BME280;57192;41.976;2.828;2022-07-11T08:45:06;100707.56;;;54.93;5.05
64238;BME280;57192;41.976;2.828;2022-07-11T08:47:33;100711.44;;;52.88;6.19
64238;BME280;57192;41.976;2.828;2022-07-11T08:50:01;100705.31;;;50.54;6.90
64238;BME280;57192;41.976;2.828;2022-07-11T08:52:28;100706.13;;;48.63;8.17
64238;BME280;57192;41.976;2.828;2022-07-11T08:54:53;100702.25;;;45.77;10.56
64238;BME280;57192;41.976;2.828;2022-07-11T08:57:19;100699.81;;;44.42;11.64
64238;BME280;57192;41.976;2.828;2022-07-11T08:59:47;100696.31;;;42.93;12.68
64238;BME280;57192;41.976;2.828;2022-07-11T09:02:12;100701.03;;;41.40;13.82
64238;BME280;57192;41.976;2.828;2022-07-11T09:04:38;100705.28;;;40.61;14.42
64238;BME280;57192;41.976;2.828;2022-07-11T09:07:03;100703.53;;;39.78;15.22
64238;BME280;57192;41.976;2.828;2022-07-11T09:09:29;100695.47;;;39.14;15.75
64238;BME280;57192;41.976;2.828;2022-07-11T09:11:56;100701.31;;;38.84;16.25
64238;BME280;57192;41.976;2.828;2022-07-11T09:14:30;100701.88;;;38.57;16.48
64238;BME280;57192;41.976;2.828;2022-07-11T09:17:02;100698.13;;;37.88;17.04
64238;BME280;57192;41.976;2.828;2022-07-11T09:19:30;100695.38;;;37.22;18.14
64238;BME280;57192;41.976;2.828;2022-07-11T09:22:16;100697.25;;;36.50;18.88
64238;BME280;57192;41.976;2.828;2022-07-11T09:25:03;100696.00;;;36.46;19.09
64238;BME280;57192;41.976;2.828;2022-07-11T09:30:26;100694.34;;;36.26;19.42
64238;BME280;57192;41.976;2.828;2022-07-11T09:32:59;100698.78;;;36.09;19.33
64238;BME280;57192;41.976;2.828;2022-07-11T09:35:31;100693.38;;;35.96;19.42
64238;BME280;57192;41.976;2.828;2022-07-11T09:37:58;100698.38;;;35.87;19.55
64238;BME280;57192;41.976;2.828;2022-07-11T09:40:27;100707.19;;;35.96;19.59
64238;BME280;57192;41.976;2.828;2022-07-11T09:42:54;100698.88;;;35.77;20.03
64238;BME280;57192;41.976;2.828;2022-07-11T09:45:23;100699.31;;;35.74;20.13
64238;BME280;57192;41.976;2.828;2022-07-11T09:47:54;100697.22;;;35.95;19.79
64238;BME280;57192;41.976;2.828;2022-07-11T09:50:22;100691.81;;;35.81;19.94
64238;BME280;57192;41.976;2.828;2022-07-11T09:53:05;100684.50;;;36.30;19.67
64238;BME280;57192;41.976;2.828;2022-07-11T09:55:42;100701.69;;;36.32;19.13
64238;BME280;57192;41.976;2.828;2022-07-11T09:58:12;100685.38;;;36.43;19.14
64238;BME280;57192;41.976;2.828;2022-07-11T10:01:04;100681.41;;;36.57;19.09
64238;BME280;57192;41.976;2.828;2022-07-11T10:03:34;100683.94;;;36.58;19.03
64238;BME280;57192;41.976;2.828;2022-07-11T10:06:01;100681.00;;;36.72;18.66
64238;BME280;57192;41.976;2.828;2022-07-11T10:08:28;100682.16;;;36.64;19.01
64238;BME280;57192;41.976;2.828;2022-07-11T10:10:58;100677.47;;;36.65;18.75
64238;BME280;57192;41.976;2.828;2022-07-11T10:13:25;100678.97;;;36.79;18.53
64238;BME280;57192;41.976;2.828;2022-07-11T10:15:54;100682.91;;;36.71;18.49
64238;BME280;57192;41.976;2.828;2022-07-11T10:21:04;100691.94;;;36.30;19.26
64238;BME280;57192;41.976;2.828;2022-07-11T10:23:53;100689.25;;;36.23;19.36
64238;BME280;57192;41.976;2.828;2022-07-11T10:26:32;100692.00;;;36.05;19.74
64238;BME280;57192;41.976;2.828;2022-07-11T10:29:18;100696.72;;;35.79;20.33
64238;BME280;57192;41.976;2.828;2022-07-11T10:32:09;100690.16;;;35.55;19.92
64238;BME280;57192;41.976;2.828;2022-07-11T10:35:07;100689.16;;;35.50;19.89
64238;BME280;57192;41.976;2.828;2022-07-11T10:37:55;100695.97;;;35.15;20.41
64238;BME280;57192;41.976;2.828;2022-07-11T10:40:57;100688.38;;;35.11;20.77
64238;BME280;57192;41.976;2.828;2022-07-11T10:43:36;100681.94;;;35.17;20.93
64238;BME280;57192;41.976;2.828;2022-07-11T10:46:07;100678.81;;;35.07;20.91
64238;BME280;57192;41.976;2.828;2022-07-11T10:51:34;100671.78;;;35.11;21.00
64238;BME280;57192;41.976;2.828;2022-07-11T10:54:10;100670.34;;;35.02;20.60
64238;BME280;57192;41.976;2.828;2022-07-11T10:57:39;100672.28;;;35.01;21.19
64238;BME280;57192;41.976;2.828;2022-07-11T11:00:04;100676.28;;;35.05;21.34
64238;BME280;57192;41.976;2.828;2022-07-11T11:02:31;100672.22;;;35.08;21.23
64238;BME280;57192;41.976;2.828;2022-07-11T11:11:01;100674.00;;;34.57;21.83
64238;BME280;57192;41.976;2.828;2022-07-11T11:13:28;100663.69;;;34.26;22.80
64238;BME280;57192;41.976;2.828;2022-07-11T11:15:57;100666.09;;;34.16;22.99
64238;BME280;57192;41.976;2.828;2022-07-11T11:23:35;100650.06;;;33.66;23.60
64238;BME280;57192;41.976;2.828;2022-07-11T11:26:18;100659.59;;;33.64;23.46
64238;BME280;57192;41.976;2.828;2022-07-11T11:29:04;100668.94;;;33.50;23.95
64238;BME280;57192;41.976;2.828;2022-07-11T11:31:30;100668.50;;;33.53;23.68
64238;BME280;57192;41.976;2.828;2022-07-11T11:33:57;100663.00;;;33.46;24.20
64238;BME280;57192;41.976;2.828;2022-07-11T11:36:24;100661.28;;;33.65;24.08
64238;BME280;57192;41.976;2.828;2022-07-11T11:38:51;100665.97;;;33.64;23.71
64238;BME280;57192;41.976;2.828;2022-07-11T11:41:24;100665.97;;;33.58;24.26
64238;BME280;57192;41.976;2.828;2022-07-11T11:43:51;100656.22;;;33.62;24.22
64238;BME280;57192;41.976;2.828;2022-07-11T11:46:17;100659.19;;;33.60;23.99
64238;BME280;57192;41.976;2.828;2022-07-11T11:48:43;100650.66;;;33.82;23.83
64238;BME280;57192;41.976;2.828;2022-07-11T11:51:11;100655.53;;;33.86;23.94
64238;BME280;57192;41.976;2.828;2022-07-11T11:53:43;100661.69;;;33.75;23.71
64238;BME280;57192;41.976;2.828;2022-07-11T11:58:56;100652.38;;;33.76;23.80
64238;BME280;57192;41.976;2.828;2022-07-11T12:01:30;100645.59;;;33.72;23.49
64238;BME280;57192;41.976;2.828;2022-07-11T12:04:04;100643.91;;;33.58;24.25
64238;BME280;57192;41.976;2.828;2022-07-11T12:06:35;100645.59;;;33.72;24.08
64238;BME280;57192;41.976;2.828;2022-07-11T12:09:07;100656.66;;;33.59;24.20
64238;BME280;57192;41.976;2.828;2022-07-11T12:11:34;100653.66;;;33.54;24.06
64238;BME280;57192;41.976;2.828;2022-07-11T12:14:02;100644.78;;;33.52;24.32
64238;BME280;57192;41.976;2.828;2022-07-11T12:16:29;100648.56;;;33.44;23.91
64238;BME280;57192;41.976;2.828;2022-07-11T12:19:24;100651.09;;;33.45;24.42
64238;BME280;57192;41.976;2.828;2022-07-11T12:21:53;100644.53;;;33.73;23.91
64238;BME280;57192;41.976;2.828;2022-07-11T12:24:23;100649.41;;;33.78;23.88
64238;BME280;57192;41.976;2.828;2022-07-11T12:26:49;100650.69;;;33.68;24.29
64238;BME280;57192;41.976;2.828;2022-07-11T12:34:22;100629.84;;;33.99;23.74
64238;BME280;57192;41.976;2.828;2022-07-11T12:37:00;100633.66;;;33.91;23.32
64238;BME280;57192;41.976;2.828;2022-07-11T12:39:26;100637.53;;;33.77;23.53
64238;BME280;57192;41.976;2.828;2022-07-11T12:41:55;100643.25;;;33.82;23.89
64238;BME280;57192;41.976;2.828;2022-07-11T12:47:13;100637.94;;;33.81;23.72
64238;BME280;57192;41.976;2.828;2022-07-11T12:49:40;100636.47;;;33.78;23.79
64238;BME280;57192;41.976;2.828;2022-07-11T12:52:10;100633.28;;;33.81;23.31
64238;BME280;57192;41.976;2.828;2022-07-11T12:54:36;100634.56;;;33.72;23.27
64238;BME280;57192;41.976;2.828;2022-07-11T12:57:01;100628.00;;;33.66;23.82
64238;BME280;57192;41.976;2.828;2022-07-11T12:59:29;100639.22;;;33.78;23.89
64238;BME280;57192;41.976;2.828;2022-07-11T13:02:14;100640.44;;;34.02;23.10
64238;BME280;57192;41.976;2.828;2022-07-11T13:04:47;100643.44;;;34.01;23.00
64238;BME280;57192;41.976;2.828;2022-07-11T13:10:24;100642.59;;;33.87;22.62
64238;BME280;57192;41.976;2.828;2022-07-11T13:12:52;100634.31;;;34.00;22.67
64238;BME280;57192;41.976;2.828;2022-07-11T13:15:18;100637.44;;;34.17;22.45
64238;BME280;57192;41.976;2.828;2022-07-11T13:17:49;100635.16;;;34.01;22.55
64238;BME280;57192;41.976;2.828;2022-07-11T13:20:18;100641.31;;;33.89;22.85
64238;BME280;57192;41.976;2.828;2022-07-11T13:22:46;100646.00;;;33.82;23.21
64238;BME280;57192;41.976;2.828;2022-07-11T13:25:12;100639.66;;;33.75;22.96
64238;BME280;57192;41.976;2.828;2022-07-11T13:27:44;100643.00;;;33.90;22.98
64238;BME280;57192;41.976;2.828;2022-07-11T13:30:11;100636.41;;;33.91;22.75